Weather Models
Both GFS & NAM
00z 06z 12z 18z
24hr Precip
00z 06z 12z 18z
36hr Simulated radar
00z 06z 12z 18z
SKEWT Soundings
00z 12z
Current Conditions (Updated 10:29pm on 12/15/19)
Temperature
 39°
-0.13
51°  
39°  
0
10
20
30
40
50
60
70
80
90
100
Dew Point
18°
36°  
18°  
-20
-10
0
10
20
30
40
50
60
70
80
Wind Chill
35°
48°  
30°  
-20
-10
0
10
20
30
40
50
60
70
80
Wind Chill
Humidity
42%
64% 
40% 
0
10
20
30
40
50
60
70
80
90
100
Barometer
30.19
   Steady
30.19  
29.54  
28.00
28.30
28.60
28.90
29.20
29.50
29.80
30.10
30.40
30.70
31.00
Temperature
Dew Point
Humidity
Pressure
Wind
6mph
 NW
Daily Rain
.00
.05
.10
.15
.20
.25
.30
.35
.40
.45
.50
Rain Today
 0.00" 
Month Rain
0.00
0.50
1.00
1.50
2.00
2.50
3.00
3.50
4.00
4.50
5.00
Month Rain
 3.26" 
Year Rain
0.00
7.50
15.00
22.50
30.00
37.50
45.00
52.50
60.00
67.50
75.00
Year Rain
 51.40" 
Sun & Moon Data
Sunrise 7:14am
Sunset 4:36pm
Moonrise 8:15pm
Moonset 10:17am
Moon % 88%
Other Rain Data
Past Hour 0.00 Past 24 Hours 0.00
Past 3 Hours 0.00 Past 7 Days 2.44
Past 6 Hours 0.00
Cloud Height
5287


Current Front Map
Current Satellite map
7 Day Forecast
NWS Forecast for Philadelphia PA
National Weather Service Forecast for: Philadelphia PA
Issued by: National Weather Service Philadelphia, PA
Updated: 6:42 pm EST Dec 15, 2019

Philadelphia
 
Tonight

Tonight: Increasing clouds, with a low around 30. West wind 5 to 9 mph becoming light northwest  after midnight.
Increasing
Clouds

Monday

Monday: A chance of rain and snow before 2pm, then a chance of rain, snow, and sleet between 2pm and 3pm, then rain likely after 3pm.  Cloudy, with a high near 35. Calm wind becoming east around 6 mph in the afternoon.  Chance of precipitation is 70%. New snow and sleet accumulation of less than one inch possible.
Chance
Rain/Snow
then Wintry
Mix Likely
Monday
Night
Monday Night: Rain.  Low around 33. Northeast wind around 7 mph.  Chance of precipitation is 90%. New precipitation amounts between a half and three quarters of an inch possible.
Rain

Tuesday

Tuesday: Rain, mainly before 5pm.  High near 45. Northeast wind 7 to 9 mph becoming northwest in the afternoon.  Chance of precipitation is 90%. New precipitation amounts between a quarter and half of an inch possible.
Rain

Tuesday
Night
Tuesday Night: A chance of rain before 8pm.  Partly cloudy, with a low around 29. Northwest wind around 10 mph.  Chance of precipitation is 40%. New precipitation amounts of less than a tenth of an inch possible.
Chance Rain
then Mostly
Clear
Wednesday

Wednesday: Mostly sunny, with a high near 37.
Mostly Sunny

Wednesday
Night
Wednesday Night: Partly cloudy, with a low around 21.
Partly Cloudy

Thursday

Thursday: Mostly sunny, with a high near 29.
Mostly Sunny

Thursday
Night
Thursday Night: Partly cloudy, with a low around 20.
Partly Cloudy

Lo 30 °F Hi 35 °F Lo 33 °F Hi 45 °F Lo 29 °F Hi 37 °F Lo 21 °F Hi 29 °F Lo 20 °F

Winter Weather Advisory
Hazardous Weather Outlook
 

Tonight
 
Increasing clouds, with a low around 30. West wind 5 to 9 mph becoming light northwest after midnight.
Monday
 
A chance of rain and snow before 2pm, then a chance of rain, snow, and sleet between 2pm and 3pm, then rain likely after 3pm. Cloudy, with a high near 35. Calm wind becoming east around 6 mph in the afternoon. Chance of precipitation is 70%. New snow and sleet accumulation of less than one inch possible.
Monday Night
 
Rain. Low around 33. Northeast wind around 7 mph. Chance of precipitation is 90%. New precipitation amounts between a half and three quarters of an inch possible.
Tuesday
 
Rain, mainly before 5pm. High near 45. Northeast wind 7 to 9 mph becoming northwest in the afternoon. Chance of precipitation is 90%. New precipitation amounts between a quarter and half of an inch possible.
Tuesday Night
 
A chance of rain before 8pm. Partly cloudy, with a low around 29. Northwest wind around 10 mph. Chance of precipitation is 40%. New precipitation amounts of less than a tenth of an inch possible.
Wednesday
 
Mostly sunny, with a high near 37.
Wednesday Night
 
Partly cloudy, with a low around 21.
Thursday
 
Mostly sunny, with a high near 29.
Thursday Night
 
Partly cloudy, with a low around 20.
Friday
 
Mostly sunny, with a high near 38.
Friday Night
 
Partly cloudy, with a low around 25.
Saturday
 
A chance of rain. Partly sunny, with a high near 40. Chance of precipitation is 30%.
Saturday Night
 
A chance of rain and snow. Mostly cloudy, with a low around 29. Chance of precipitation is 30%.
Sunday
 
A chance of snow. Partly sunny, with a high near 42. Chance of precipitation is 30%.

 

Forecast from NOAA-NWS for Philadelphia PA.

Area Weather Current Conditions
Nearby METAR Reports

KPHL - Philadelphia, Pennsylvania
Updated: Sun, 15-Dec-2019 9:54pm EST
Few Clouds
Few Clouds
 Wind from W
Wind: W 9 mph , 15 km/h
Temperature: 37°F , 3°C
Wind Chill: 30°F , -1°C
Dew Point: 19°F , -7°C
Humidity: 48%
Barometer: 30.19 inHg , 1022.4 hPa
Clouds: Few Clouds
Visibility: 10 miles , 16 km
Cloud details: Few Clouds 28000 ft
2019/12/16 02:54 KPHL 160254Z 27008KT 10SM FEW280 03/M07 A3019 RMK AO2 SLP223 T00331072 53021 $
KMPO - Mt. Pocono, Pennsylvania
Updated: Sun, 15-Dec-2019 9:53pm EST
Partly Cloudy
Partly Cloudy
 Wind from WNW
Wind: WNW 17 mph , 28 km/h
Temperature: 27°F , -3°C
Wind Chill: 14°F , -10°C
Dew Point: 18°F , -8°C
Humidity: 69%
Barometer: 30.05 inHg , 1017.6 hPa
Clouds: Partly Cloudy
Visibility: 10 miles , 16 km
Cloud details: Partly Cloudy 3700 ft
2019/12/16 02:53 KMPO 160253Z AUTO 29015KT 10SM SCT037 M03/M08 A3005 RMK AO2 SLP195 T10281078 53020
 
KACY - Atlantic City, New Jersey
Updated: Sun, 15-Dec-2019 9:54pm EST
Clear
Clear
 Wind from NW
Wind: NW 8 mph , 13 km/h
Temperature: 37°F , 3°C
Wind Chill: 31°F , -1°C
Dew Point: 21°F , -6°C
Humidity: 52%
Barometer: 30.17 inHg , 1021.7 hPa
Clouds: Clear
Visibility: 10 miles , 16 km
2019/12/16 02:54 KACY 160254Z 31007KT 10SM CLR 03/M06 A3017
KMIV - Millville, New Jersey
Updated: Sun, 15-Dec-2019 9:54pm EST
Clear
Clear
 Wind from NW
Wind: NW 3 mph , 6 km/h
Temperature: 36°F , 2°C
Dew Point: 21°F , -6°C
Humidity: 56%
Barometer: 30.18 inHg , 1022 hPa
Clouds: Clear
Visibility: 10 miles , 16 km
2019/12/16 02:54 KMIV 160254Z AUTO 31003KT 10SM CLR 02/M06 A3018 RMK AO2 SLP219 T00221061 51022
 
KWWD - Wildwood, New Jersey
Updated: Sun, 15-Dec-2019 9:56pm EST
Clear
Clear
 Wind from NNW
Wind: NNW 7 mph , 11 km/h
Temperature: 39°F , 4°C
Wind Chill: 34°F , 1°C
Dew Point: 25°F , -4°C
Humidity: 56%
Barometer: 30.20 inHg , 1022.7 hPa
Clouds: Clear
Visibility: 10 miles , 16 km
2019/12/16 02:56 KWWD 160256Z AUTO 33006KT 10SM CLR 04/M04 A3020 RMK AO2 SLP229 T00391039 53027
KDOV - Dover Afb, Delaware
Updated: Sun, 15-Dec-2019 9:56pm EST
Clear
Clear
 Wind from NW
Wind: NW 7 mph , 11 km/h
Temperature: 36°F , 2°C
Wind Chill: 30°F , -1°C
Dew Point: 23°F , -5°C
Humidity: 60%
Barometer: 30.20 inHg , 1022.7 hPa
Clouds: Clear
Visibility: 10 miles , 16 km
2019/12/16 02:56 KDOV 160256Z AUTO 31006KT 10SM CLR 02/M05 A3020 RMK AO2 SLP230 T00201047 52027 $
Severe Weather Map